sensor_id;sensor_type;location;lat;lon;timestamp;P1;durP1;ratioP1;P2;durP2;ratioP2
2548;SDS011;1284;53.520;10.248;2023-05-23T00:02:18;4.15;;;1.27;;
2548;SDS011;1284;53.520;10.248;2023-05-23T00:04:44;2.20;;;1.33;;
2548;SDS011;1284;53.520;10.248;2023-05-23T00:07:09;2.45;;;1.45;;
2548;SDS011;1284;53.520;10.248;2023-05-23T00:09:56;2.05;;;1.33;;
2548;SDS011;1284;53.520;10.248;2023-05-23T00:12:22;2.45;;;1.63;;
2548;SDS011;1284;53.520;10.248;2023-05-23T00:14:47;2.30;;;1.30;;
2548;SDS011;1284;53.520;10.248;2023-05-23T00:17:13;2.25;;;1.40;;
2548;SDS011;1284;53.520;10.248;2023-05-23T00:19:41;2.95;;;1.73;;
2548;SDS011;1284;53.520;10.248;2023-05-23T00:22:10;2.65;;;1.40;;
2548;SDS011;1284;53.520;10.248;2023-05-23T00:24:36;1.83;;;0.80;;
2548;SDS011;1284;53.520;10.248;2023-05-23T00:27:02;2.03;;;1.15;;
2548;SDS011;1284;53.520;10.248;2023-05-23T00:29:28;1.70;;;1.27;;
2548;SDS011;1284;53.520;10.248;2023-05-23T00:31:53;1.40;;;0.95;;
2548;SDS011;1284;53.520;10.248;2023-05-23T00:34:18;2.78;;;1.40;;
2548;SDS011;1284;53.520;10.248;2023-05-23T00:36:44;2.03;;;1.52;;
2548;SDS011;1284;53.520;10.248;2023-05-23T00:39:14;2.38;;;1.67;;
2548;SDS011;1284;53.520;10.248;2023-05-23T00:41:50;1.95;;;1.23;;
2548;SDS011;1284;53.520;10.248;2023-05-23T00:44:16;1.75;;;1.15;;
2548;SDS011;1284;53.520;10.248;2023-05-23T00:46:44;1.48;;;1.02;;
2548;SDS011;1284;53.520;10.248;2023-05-23T00:49:13;1.85;;;1.40;;
2548;SDS011;1284;53.520;10.248;2023-05-23T00:51:39;2.53;;;1.55;;
2548;SDS011;1284;53.520;10.248;2023-05-23T00:54:07;1.33;;;1.05;;
2548;SDS011;1284;53.520;10.248;2023-05-23T00:56:33;5.90;;;1.95;;
2548;SDS011;1284;53.520;10.248;2023-05-23T00:58:59;1.85;;;1.27;;
2548;SDS011;1284;53.520;10.248;2023-05-23T01:01:25;1.83;;;1.40;;
2548;SDS011;1284;53.520;10.248;2023-05-23T01:03:51;2.60;;;1.20;;
2548;SDS011;1284;53.520;10.248;2023-05-23T01:06:17;2.47;;;1.58;;
2548;SDS011;1284;53.520;10.248;2023-05-23T01:08:42;3.75;;;1.67;;
2548;SDS011;1284;53.520;10.248;2023-05-23T01:11:14;1.92;;;1.45;;
2548;SDS011;1284;53.520;10.248;2023-05-23T01:13:51;2.63;;;1.45;;
2548;SDS011;1284;53.520;10.248;2023-05-23T01:16:28;1.45;;;1.35;;
2548;SDS011;1284;53.520;10.248;2023-05-23T01:19:05;2.10;;;1.67;;
2548;SDS011;1284;53.520;10.248;2023-05-23T01:21:44;2.83;;;1.30;;
2548;SDS011;1284;53.520;10.248;2023-05-23T01:24:26;1.55;;;1.17;;
2548;SDS011;1284;53.520;10.248;2023-05-23T01:29:37;2.15;;;1.60;;
2548;SDS011;1284;53.520;10.248;2023-05-23T01:32:09;2.00;;;1.65;;
2548;SDS011;1284;53.520;10.248;2023-05-23T01:34:36;2.78;;;1.33;;
2548;SDS011;1284;53.520;10.248;2023-05-23T01:37:06;2.35;;;1.75;;
2548;SDS011;1284;53.520;10.248;2023-05-23T01:39:36;2.28;;;1.63;;
2548;SDS011;1284;53.520;10.248;2023-05-23T01:42:02;2.00;;;1.60;;
2548;SDS011;1284;53.520;10.248;2023-05-23T01:44:28;3.97;;;1.77;;
2548;SDS011;1284;53.520;10.248;2023-05-23T01:46:55;2.90;;;1.75;;
2548;SDS011;1284;53.520;10.248;2023-05-23T01:49:21;2.83;;;2.05;;
2548;SDS011;1284;53.520;10.248;2023-05-23T01:51:48;3.05;;;2.13;;
2548;SDS011;1284;53.520;10.248;2023-05-23T01:54:14;2.92;;;2.03;;
2548;SDS011;1284;53.520;10.248;2023-05-23T01:56:41;2.50;;;1.60;;
2548;SDS011;1284;53.520;10.248;2023-05-23T01:59:07;3.25;;;2.03;;
2548;SDS011;1284;53.520;10.248;2023-05-23T02:01:33;2.00;;;1.38;;
2548;SDS011;1284;53.520;10.248;2023-05-23T02:03:59;1.70;;;1.55;;
2548;SDS011;1284;53.520;10.248;2023-05-23T02:06:25;2.25;;;1.70;;
2548;SDS011;1284;53.520;10.248;2023-05-23T02:08:50;2.80;;;1.90;;
2548;SDS011;1284;53.520;10.248;2023-05-23T02:11:16;2.70;;;1.90;;
2548;SDS011;1284;53.520;10.248;2023-05-23T02:13:41;2.63;;;1.67;;
2548;SDS011;1284;53.520;10.248;2023-05-23T02:16:09;2.72;;;1.70;;
2548;SDS011;1284;53.520;10.248;2023-05-23T02:18:35;3.35;;;1.65;;
2548;SDS011;1284;53.520;10.248;2023-05-23T02:21:03;3.25;;;1.92;;
2548;SDS011;1284;53.520;10.248;2023-05-23T02:23:29;3.00;;;1.75;;
2548;SDS011;1284;53.520;10.248;2023-05-23T02:25:54;2.40;;;1.83;;
2548;SDS011;1284;53.520;10.248;2023-05-23T02:28:20;2.53;;;1.80;;
2548;SDS011;1284;53.520;10.248;2023-05-23T02:30:47;2.72;;;2.10;;
2548;SDS011;1284;53.520;10.248;2023-05-23T02:33:13;3.08;;;1.73;;
2548;SDS011;1284;53.520;10.248;2023-05-23T02:35:38;3.40;;;2.10;;
2548;SDS011;1284;53.520;10.248;2023-05-23T02:38:04;4.68;;;3.10;;
2548;SDS011;1284;53.520;10.248;2023-05-23T02:40:29;6.22;;;3.55;;
2548;SDS011;1284;53.520;10.248;2023-05-23T02:42:55;6.63;;;4.28;;
2548;SDS011;1284;53.520;10.248;2023-05-23T02:45:22;6.28;;;3.75;;
2548;SDS011;1284;53.520;10.248;2023-05-23T02:47:48;8.45;;;4.20;;
2548;SDS011;1284;53.520;10.248;2023-05-23T02:50:13;9.30;;;4.63;;
2548;SDS011;1284;53.520;10.248;2023-05-23T02:52:39;12.05;;;4.70;;
2548;SDS011;1284;53.520;10.248;2023-05-23T02:55:07;9.02;;;4.43;;
2548;SDS011;1284;53.520;10.248;2023-05-23T02:57:38;7.85;;;4.70;;
2548;SDS011;1284;53.520;10.248;2023-05-23T03:00:04;8.65;;;4.28;;
2548;SDS011;1284;53.520;10.248;2023-05-23T03:02:31;10.05;;;4.45;;
2548;SDS011;1284;53.520;10.248;2023-05-23T03:04:57;12.73;;;5.65;;
2548;SDS011;1284;53.520;10.248;2023-05-23T03:07:22;12.63;;;6.10;;
2548;SDS011;1284;53.520;10.248;2023-05-23T03:09:48;10.45;;;5.15;;
2548;SDS011;1284;53.520;10.248;2023-05-23T03:12:13;12.70;;;6.00;;
2548;SDS011;1284;53.520;10.248;2023-05-23T03:14:39;10.50;;;5.32;;
2548;SDS011;1284;53.520;10.248;2023-05-23T03:17:04;13.65;;;6.53;;
2548;SDS011;1284;53.520;10.248;2023-05-23T03:19:29;11.00;;;4.88;;
2548;SDS011;1284;53.520;10.248;2023-05-23T03:21:55;15.48;;;4.85;;
2548;SDS011;1284;53.520;10.248;2023-05-23T03:24:21;12.82;;;5.53;;
2548;SDS011;1284;53.520;10.248;2023-05-23T03:26:46;15.27;;;6.28;;
2548;SDS011;1284;53.520;10.248;2023-05-23T03:29:11;10.48;;;5.03;;
2548;SDS011;1284;53.520;10.248;2023-05-23T03:31:37;11.73;;;5.18;;
2548;SDS011;1284;53.520;10.248;2023-05-23T03:34:02;15.00;;;6.32;;
2548;SDS011;1284;53.520;10.248;2023-05-23T03:36:30;12.15;;;5.68;;
2548;SDS011;1284;53.520;10.248;2023-05-23T03:39:15;12.50;;;5.85;;
2548;SDS011;1284;53.520;10.248;2023-05-23T03:41:41;10.13;;;5.40;;
2548;SDS011;1284;53.520;10.248;2023-05-23T03:44:06;13.75;;;5.22;;
2548;SDS011;1284;53.520;10.248;2023-05-23T03:46:33;12.68;;;4.53;;
2548;SDS011;1284;53.520;10.248;2023-05-23T03:48:58;10.82;;;4.78;;
2548;SDS011;1284;53.520;10.248;2023-05-23T03:51:24;14.00;;;5.47;;
2548;SDS011;1284;53.520;10.248;2023-05-23T03:53:49;9.45;;;4.63;;
2548;SDS011;1284;53.520;10.248;2023-05-23T03:56:15;10.98;;;5.63;;
2548;SDS011;1284;53.520;10.248;2023-05-23T03:58:41;12.35;;;5.13;;
2548;SDS011;1284;53.520;10.248;2023-05-23T04:01:11;12.32;;;6.28;;
2548;SDS011;1284;53.520;10.248;2023-05-23T04:03:38;10.65;;;5.40;;
2548;SDS011;1284;53.520;10.248;2023-05-23T04:06:03;11.73;;;5.63;;
2548;SDS011;1284;53.520;10.248;2023-05-23T04:08:29;13.15;;;5.60;;
2548;SDS011;1284;53.520;10.248;2023-05-23T04:10:58;8.18;;;4.80;;
2548;SDS011;1284;53.520;10.248;2023-05-23T04:13:26;7.25;;;3.95;;
2548;SDS011;1284;53.520;10.248;2023-05-23T04:15:53;11.45;;;5.70;;
2548;SDS011;1284;53.520;10.248;2023-05-23T04:18:22;7.38;;;4.28;;
2548;SDS011;1284;53.520;10.248;2023-05-23T04:20:48;11.00;;;5.10;;
2548;SDS011;1284;53.520;10.248;2023-05-23T04:23:13;9.65;;;5.03;;
2548;SDS011;1284;53.520;10.248;2023-05-23T04:25:41;9.98;;;5.03;;
2548;SDS011;1284;53.520;10.248;2023-05-23T04:28:15;11.10;;;5.03;;
2548;SDS011;1284;53.520;10.248;2023-05-23T04:30:43;8.65;;;4.32;;
2548;SDS011;1284;53.520;10.248;2023-05-23T04:33:09;11.23;;;5.03;;
2548;SDS011;1284;53.520;10.248;2023-05-23T04:35:36;11.70;;;4.70;;
2548;SDS011;1284;53.520;10.248;2023-05-23T04:38:05;11.32;;;5.30;;
2548;SDS011;1284;53.520;10.248;2023-05-23T04:40:31;9.88;;;3.95;;
2548;SDS011;1284;53.520;10.248;2023-05-23T04:43:19;12.45;;;4.78;;
2548;SDS011;1284;53.520;10.248;2023-05-23T04:45:48;10.32;;;4.70;;
2548;SDS011;1284;53.520;10.248;2023-05-23T04:48:34;9.63;;;5.15;;
2548;SDS011;1284;53.520;10.248;2023-05-23T04:51:02;9.52;;;4.38;;
2548;SDS011;1284;53.520;10.248;2023-05-23T04:53:36;7.63;;;3.75;;
2548;SDS011;1284;53.520;10.248;2023-05-23T04:56:03;9.68;;;4.10;;
2548;SDS011;1284;53.520;10.248;2023-05-23T04:58:29;9.18;;;3.72;;
2548;SDS011;1284;53.520;10.248;2023-05-23T05:01:00;10.53;;;3.73;;
2548;SDS011;1284;53.520;10.248;2023-05-23T05:03:25;8.35;;;4.93;;
2548;SDS011;1284;53.520;10.248;2023-05-23T05:05:51;8.30;;;4.07;;
2548;SDS011;1284;53.520;10.248;2023-05-23T05:08:18;8.10;;;3.92;;
2548;SDS011;1284;53.520;10.248;2023-05-23T05:10:44;8.35;;;4.15;;
2548;SDS011;1284;53.520;10.248;2023-05-23T05:13:10;10.82;;;3.83;;
2548;SDS011;1284;53.520;10.248;2023-05-23T05:15:43;9.25;;;3.35;;
2548;SDS011;1284;53.520;10.248;2023-05-23T05:18:08;11.77;;;4.82;;
2548;SDS011;1284;53.520;10.248;2023-05-23T05:20:34;9.95;;;4.57;;
2548;SDS011;1284;53.520;10.248;2023-05-23T05:22:59;7.68;;;4.63;;
2548;SDS011;1284;53.520;10.248;2023-05-23T05:25:26;10.32;;;4.55;;
2548;SDS011;1284;53.520;10.248;2023-05-23T05:27:56;10.93;;;5.20;;
2548;SDS011;1284;53.520;10.248;2023-05-23T05:30:24;11.95;;;6.05;;
2548;SDS011;1284;53.520;10.248;2023-05-23T05:32:56;12.38;;;4.68;;
2548;SDS011;1284;53.520;10.248;2023-05-23T05:35:22;10.07;;;4.00;;
2548;SDS011;1284;53.520;10.248;2023-05-23T05:37:47;13.65;;;5.00;;
2548;SDS011;1284;53.520;10.248;2023-05-23T05:40:13;10.70;;;4.28;;
2548;SDS011;1284;53.520;10.248;2023-05-23T05:42:41;16.35;;;5.15;;
2548;SDS011;1284;53.520;10.248;2023-05-23T05:45:08;10.00;;;3.80;;
2548;SDS011;1284;53.520;10.248;2023-05-23T05:47:35;8.93;;;4.40;;
2548;SDS011;1284;53.520;10.248;2023-05-23T05:50:03;10.80;;;3.63;;
2548;SDS011;1284;53.520;10.248;2023-05-23T05:52:35;6.88;;;3.50;;
2548;SDS011;1284;53.520;10.248;2023-05-23T05:55:05;7.28;;;3.35;;
2548;SDS011;1284;53.520;10.248;2023-05-23T05:57:33;6.18;;;3.03;;
2548;SDS011;1284;53.520;10.248;2023-05-23T06:00:01;10.50;;;2.90;;
2548;SDS011;1284;53.520;10.248;2023-05-23T06:04:58;8.43;;;3.08;;
2548;SDS011;1284;53.520;10.248;2023-05-23T06:07:23;9.80;;;3.47;;
2548;SDS011;1284;53.520;10.248;2023-05-23T06:09:49;5.93;;;3.30;;
2548;SDS011;1284;53.520;10.248;2023-05-23T06:12:14;7.22;;;3.00;;
2548;SDS011;1284;53.520;10.248;2023-05-23T06:14:40;8.20;;;3.35;;
2548;SDS011;1284;53.520;10.248;2023-05-23T06:17:07;6.35;;;3.63;;
2548;SDS011;1284;53.520;10.248;2023-05-23T06:19:33;7.15;;;3.42;;
2548;SDS011;1284;53.520;10.248;2023-05-23T06:21:59;4.63;;;3.05;;
2548;SDS011;1284;53.520;10.248;2023-05-23T06:24:24;8.80;;;4.00;;
2548;SDS011;1284;53.520;10.248;2023-05-23T06:26:50;7.32;;;3.20;;
2548;SDS011;1284;53.520;10.248;2023-05-23T06:29:15;7.55;;;3.10;;
2548;SDS011;1284;53.520;10.248;2023-05-23T06:31:41;5.75;;;3.03;;
2548;SDS011;1284;53.520;10.248;2023-05-23T06:34:08;7.57;;;3.25;;
2548;SDS011;1284;53.520;10.248;2023-05-23T06:36:34;5.30;;;2.85;;
2548;SDS011;1284;53.520;10.248;2023-05-23T06:38:59;7.97;;;3.22;;
2548;SDS011;1284;53.520;10.248;2023-05-23T06:41:24;9.15;;;3.65;;
2548;SDS011;1284;53.520;10.248;2023-05-23T06:43:52;7.35;;;3.28;;
2548;SDS011;1284;53.520;10.248;2023-05-23T06:46:22;7.95;;;3.63;;
2548;SDS011;1284;53.520;10.248;2023-05-23T06:48:50;6.38;;;3.85;;
2548;SDS011;1284;53.520;10.248;2023-05-23T06:51:17;7.32;;;4.15;;
2548;SDS011;1284;53.520;10.248;2023-05-23T06:53:43;5.97;;;3.05;;
2548;SDS011;1284;53.520;10.248;2023-05-23T06:56:09;8.52;;;3.35;;
2548;SDS011;1284;53.520;10.248;2023-05-23T06:58:46;13.35;;;4.03;;
2548;SDS011;1284;53.520;10.248;2023-05-23T07:01:11;5.18;;;3.10;;
2548;SDS011;1284;53.520;10.248;2023-05-23T07:03:41;6.32;;;2.78;;
2548;SDS011;1284;53.520;10.248;2023-05-23T07:06:08;8.82;;;3.13;;
2548;SDS011;1284;53.520;10.248;2023-05-23T07:08:34;7.80;;;3.75;;
2548;SDS011;1284;53.520;10.248;2023-05-23T07:11:00;7.70;;;3.72;;
2548;SDS011;1284;53.520;10.248;2023-05-23T07:13:48;6.50;;;2.53;;
2548;SDS011;1284;53.520;10.248;2023-05-23T07:16:20;7.00;;;2.33;;
2548;SDS011;1284;53.520;10.248;2023-05-23T07:19:04;7.15;;;3.40;;
2548;SDS011;1284;53.520;10.248;2023-05-23T07:21:33;7.25;;;3.17;;
2548;SDS011;1284;53.520;10.248;2023-05-23T07:23:59;6.70;;;3.08;;
2548;SDS011;1284;53.520;10.248;2023-05-23T07:26:26;7.78;;;2.83;;
2548;SDS011;1284;53.520;10.248;2023-05-23T07:28:54;5.35;;;2.80;;
2548;SDS011;1284;53.520;10.248;2023-05-23T07:31:20;4.53;;;2.35;;
2548;SDS011;1284;53.520;10.248;2023-05-23T07:33:46;5.72;;;3.15;;
2548;SDS011;1284;53.520;10.248;2023-05-23T07:36:18;5.07;;;2.65;;
2548;SDS011;1284;53.520;10.248;2023-05-23T07:38:43;7.47;;;3.72;;
2548;SDS011;1284;53.520;10.248;2023-05-23T07:41:09;4.35;;;2.22;;
2548;SDS011;1284;53.520;10.248;2023-05-23T07:43:34;7.10;;;2.38;;
2548;SDS011;1284;53.520;10.248;2023-05-23T07:46:00;5.72;;;3.00;;
2548;SDS011;1284;53.520;10.248;2023-05-23T07:48:25;3.47;;;2.40;;
2548;SDS011;1284;53.520;10.248;2023-05-23T07:50:51;5.60;;;2.50;;
2548;SDS011;1284;53.520;10.248;2023-05-23T07:53:20;6.32;;;2.95;;
2548;SDS011;1284;53.520;10.248;2023-05-23T07:55:47;3.75;;;1.95;;
2548;SDS011;1284;53.520;10.248;2023-05-23T07:58:13;3.03;;;2.08;;
2548;SDS011;1284;53.520;10.248;2023-05-23T08:00:39;3.67;;;2.17;;
2548;SDS011;1284;53.520;10.248;2023-05-23T08:03:14;2.95;;;1.80;;
2548;SDS011;1284;53.520;10.248;2023-05-23T08:05:52;4.78;;;1.75;;
2548;SDS011;1284;53.520;10.248;2023-05-23T08:08:18;2.75;;;1.50;;
2548;SDS011;1284;53.520;10.248;2023-05-23T08:10:43;2.58;;;1.52;;
2548;SDS011;1284;53.520;10.248;2023-05-23T08:13:17;1.67;;;0.95;;
2548;SDS011;1284;53.520;10.248;2023-05-23T08:16:03;3.03;;;1.73;;
2548;SDS011;1284;53.520;10.248;2023-05-23T08:18:29;2.75;;;1.65;;
2548;SDS011;1284;53.520;10.248;2023-05-23T08:20:55;2.38;;;1.15;;
2548;SDS011;1284;53.520;10.248;2023-05-23T08:23:21;2.97;;;1.80;;
2548;SDS011;1284;53.520;10.248;2023-05-23T08:25:47;2.38;;;1.50;;
2548;SDS011;1284;53.520;10.248;2023-05-23T08:28:12;1.70;;;1.38;;
2548;SDS011;1284;53.520;10.248;2023-05-23T08:30:56;2.47;;;1.38;;
2548;SDS011;1284;53.520;10.248;2023-05-23T08:33:23;2.15;;;1.27;;
2548;SDS011;1284;53.520;10.248;2023-05-23T08:35:52;2.42;;;1.08;;
2548;SDS011;1284;53.520;10.248;2023-05-23T08:38:18;1.35;;;1.08;;
2548;SDS011;1284;53.520;10.248;2023-05-23T08:40:56;1.70;;;1.13;;
2548;SDS011;1284;53.520;10.248;2023-05-23T08:43:27;2.22;;;1.20;;
2548;SDS011;1284;53.520;10.248;2023-05-23T08:45:53;1.30;;;1.00;;
2548;SDS011;1284;53.520;10.248;2023-05-23T08:48:19;1.92;;;1.27;;
2548;SDS011;1284;53.520;10.248;2023-05-23T08:50:50;4.22;;;1.70;;
2548;SDS011;1284;53.520;10.248;2023-05-23T08:55:48;1.33;;;0.80;;
2548;SDS011;1284;53.520;10.248;2023-05-23T08:58:17;2.15;;;1.20;;
2548;SDS011;1284;53.520;10.248;2023-05-23T09:00:53;1.63;;;0.98;;
2548;SDS011;1284;53.520;10.248;2023-05-23T09:03:20;1.17;;;1.08;;
2548;SDS011;1284;53.520;10.248;2023-05-23T09:05:59;0.95;;;0.70;;
2548;SDS011;1284;53.520;10.248;2023-05-23T09:08:25;1.60;;;1.30;;
2548;SDS011;1284;53.520;10.248;2023-05-23T09:10:55;0.95;;;0.60;;
2548;SDS011;1284;53.520;10.248;2023-05-23T09:13:21;1.77;;;1.10;;
2548;SDS011;1284;53.520;10.248;2023-05-23T09:15:57;1.13;;;0.70;;
2548;SDS011;1284;53.520;10.248;2023-05-23T09:18:38;1.75;;;0.77;;
2548;SDS011;1284;53.520;10.248;2023-05-23T09:21:06;1.60;;;1.13;;
2548;SDS011;1284;53.520;10.248;2023-05-23T09:23:36;1.20;;;1.10;;
2548;SDS011;1284;53.520;10.248;2023-05-23T09:26:04;0.77;;;0.65;;
2548;SDS011;1284;53.520;10.248;2023-05-23T09:28:35;0.80;;;0.60;;
2548;SDS011;1284;53.520;10.248;2023-05-23T09:31:03;1.92;;;1.05;;
2548;SDS011;1284;53.520;10.248;2023-05-23T09:33:47;1.92;;;0.75;;
2548;SDS011;1284;53.520;10.248;2023-05-23T09:36:18;1.35;;;1.08;;
2548;SDS011;1284;53.520;10.248;2023-05-23T09:38:45;0.75;;;0.60;;
2548;SDS011;1284;53.520;10.248;2023-05-23T09:41:13;2.47;;;1.30;;
2548;SDS011;1284;53.520;10.248;2023-05-23T09:43:48;4.50;;;2.05;;
2548;SDS011;1284;53.520;10.248;2023-05-23T09:46:19;3.72;;;2.22;;
2548;SDS011;1284;53.520;10.248;2023-05-23T09:48:49;16.17;;;6.72;;
2548;SDS011;1284;53.520;10.248;2023-05-23T09:53:46;7.10;;;3.47;;
2548;SDS011;1284;53.520;10.248;2023-05-23T09:56:12;2.88;;;1.13;;
2548;SDS011;1284;53.520;10.248;2023-05-23T09:58:39;0.77;;;0.73;;
2548;SDS011;1284;53.520;10.248;2023-05-23T10:01:08;2.47;;;1.08;;
2548;SDS011;1284;53.520;10.248;2023-05-23T10:03:39;2.20;;;1.13;;
2548;SDS011;1284;53.520;10.248;2023-05-23T10:06:36;2.25;;;1.35;;
2548;SDS011;1284;53.520;10.248;2023-05-23T10:09:09;1.83;;;1.10;;
2548;SDS011;1284;53.520;10.248;2023-05-23T10:14:48;1.48;;;0.93;;
2548;SDS011;1284;53.520;10.248;2023-05-23T10:17:20;1.17;;;0.73;;
2548;SDS011;1284;53.520;10.248;2023-05-23T10:19:57;1.88;;;0.90;;
2548;SDS011;1284;53.520;10.248;2023-05-23T10:22:27;1.40;;;0.70;;
2548;SDS011;1284;53.520;10.248;2023-05-23T10:24:53;1.40;;;0.63;;
2548;SDS011;1284;53.520;10.248;2023-05-23T10:27:18;0.82;;;0.60;;
2548;SDS011;1284;53.520;10.248;2023-05-23T10:29:44;0.43;;;0.30;;
2548;SDS011;1284;53.520;10.248;2023-05-23T10:32:09;0.68;;;0.40;;
2548;SDS011;1284;53.520;10.248;2023-05-23T10:37:26;0.68;;;0.45;;
2548;SDS011;1284;53.520;10.248;2023-05-23T10:40:02;0.60;;;0.50;;
2548;SDS011;1284;53.520;10.248;2023-05-23T10:45:22;1.08;;;0.60;;
2548;SDS011;1284;53.520;10.248;2023-05-23T10:47:49;2.08;;;0.93;;
2548;SDS011;1284;53.520;10.248;2023-05-23T10:53:01;1.23;;;0.70;;
2548;SDS011;1284;53.520;10.248;2023-05-23T10:55:32;5.60;;;0.47;;
2548;SDS011;1284;53.520;10.248;2023-05-23T10:58:13;0.75;;;0.70;;
2548;SDS011;1284;53.520;10.248;2023-05-23T11:03:17;0.60;;;0.60;;
2548;SDS011;1284;53.520;10.248;2023-05-23T11:05:46;0.57;;;0.43;;
2548;SDS011;1284;53.520;10.248;2023-05-23T11:08:18;3.92;;;0.60;;
2548;SDS011;1284;53.520;10.248;2023-05-23T11:15:41;0.30;;;0.30;;
2548;SDS011;1284;53.520;10.248;2023-05-23T11:18:09;0.73;;;0.57;;
2548;SDS011;1284;53.520;10.248;2023-05-23T11:20:36;0.38;;;0.30;;
2548;SDS011;1284;53.520;10.248;2023-05-23T11:23:04;0.65;;;0.40;;
2548;SDS011;1284;53.520;10.248;2023-05-23T11:25:41;0.80;;;0.47;;
2548;SDS011;1284;53.520;10.248;2023-05-23T11:28:08;0.50;;;0.50;;
2548;SDS011;1284;53.520;10.248;2023-05-23T11:30:35;0.28;;;0.28;;
2548;SDS011;1284;53.520;10.248;2023-05-23T11:33:09;0.43;;;0.40;;
2548;SDS011;1284;53.520;10.248;2023-05-23T11:35:39;0.50;;;0.40;;
2548;SDS011;1284;53.520;10.248;2023-05-23T11:38:05;0.73;;;0.52;;
2548;SDS011;1284;53.520;10.248;2023-05-23T11:43:07;0.43;;;0.40;;
2548;SDS011;1284;53.520;10.248;2023-05-23T11:45:35;4.32;;;0.98;;
2548;SDS011;1284;53.520;10.248;2023-05-23T11:48:11;1.42;;;0.40;;
2548;SDS011;1284;53.520;10.248;2023-05-23T11:50:47;1.77;;;0.73;;
2548;SDS011;1284;53.520;10.248;2023-05-23T11:53:14;0.50;;;0.50;;
2548;SDS011;1284;53.520;10.248;2023-05-23T11:55:55;0.55;;;0.30;;
2548;SDS011;1284;53.520;10.248;2023-05-23T11:58:25;4.97;;;0.90;;
2548;SDS011;1284;53.520;10.248;2023-05-23T12:01:02;5.35;;;0.38;;
2548;SDS011;1284;53.520;10.248;2023-05-23T12:03:29;4.95;;;0.82;;
2548;SDS011;1284;53.520;10.248;2023-05-23T12:05:56;17.80;;;6.43;;
2548;SDS011;1284;53.520;10.248;2023-05-23T12:08:22;42.10;;;16.67;;
2548;SDS011;1284;53.520;10.248;2023-05-23T12:10:52;28.27;;;10.52;;
2548;SDS011;1284;53.520;10.248;2023-05-23T12:13:27;18.52;;;7.18;;
2548;SDS011;1284;53.520;10.248;2023-05-23T12:16:03;2.67;;;1.75;;
2548;SDS011;1284;53.520;10.248;2023-05-23T12:18:29;0.38;;;0.38;;
2548;SDS011;1284;53.520;10.248;2023-05-23T12:21:02;0.32;;;0.32;;
2548;SDS011;1284;53.520;10.248;2023-05-23T12:23:30;1.40;;;0.45;;
2548;SDS011;1284;53.520;10.248;2023-05-23T12:25:56;3.03;;;0.55;;
2548;SDS011;1284;53.520;10.248;2023-05-23T12:28:35;0.32;;;0.32;;
2548;SDS011;1284;53.520;10.248;2023-05-23T12:31:09;1.38;;;0.47;;
2548;SDS011;1284;53.520;10.248;2023-05-23T12:33:42;1.58;;;0.65;;
2548;SDS011;1284;53.520;10.248;2023-05-23T12:36:10;2.55;;;0.32;;
2548;SDS011;1284;53.520;10.248;2023-05-23T12:39:02;0.22;;;0.20;;
2548;SDS011;1284;53.520;10.248;2023-05-23T12:41:28;0.60;;;0.25;;
2548;SDS011;1284;53.520;10.248;2023-05-23T12:43:54;0.30;;;0.30;;
2548;SDS011;1284;53.520;10.248;2023-05-23T12:46:21;0.70;;;0.50;;
2548;SDS011;1284;53.520;10.248;2023-05-23T12:48:48;1.35;;;0.82;;
2548;SDS011;1284;53.520;10.248;2023-05-23T12:51:33;0.22;;;0.22;;
2548;SDS011;1284;53.520;10.248;2023-05-23T12:54:01;1.20;;;0.75;;
2548;SDS011;1284;53.520;10.248;2023-05-23T12:56:27;0.82;;;0.40;;
2548;SDS011;1284;53.520;10.248;2023-05-23T12:58:52;2.25;;;0.50;;
2548;SDS011;1284;53.520;10.248;2023-05-23T13:01:18;0.95;;;0.30;;
2548;SDS011;1284;53.520;10.248;2023-05-23T13:03:44;0.80;;;0.40;;
2548;SDS011;1284;53.520;10.248;2023-05-23T13:06:10;1.00;;;0.43;;
2548;SDS011;1284;53.520;10.248;2023-05-23T13:08:35;1.58;;;0.43;;
2548;SDS011;1284;53.520;10.248;2023-05-23T13:11:01;2.13;;;0.70;;
2548;SDS011;1284;53.520;10.248;2023-05-23T13:13:27;1.05;;;0.30;;
2548;SDS011;1284;53.520;10.248;2023-05-23T13:15:53;1.17;;;0.77;;
2548;SDS011;1284;53.520;10.248;2023-05-23T13:18:19;4.07;;;0.40;;
2548;SDS011;1284;53.520;10.248;2023-05-23T13:20:45;1.17;;;0.35;;
2548;SDS011;1284;53.520;10.248;2023-05-23T13:23:10;0.20;;;0.20;;
2548;SDS011;1284;53.520;10.248;2023-05-23T13:25:36;2.92;;;0.30;;
2548;SDS011;1284;53.520;10.248;2023-05-23T13:28:01;0.32;;;0.32;;
2548;SDS011;1284;53.520;10.248;2023-05-23T13:30:27;0.40;;;0.35;;
2548;SDS011;1284;53.520;10.248;2023-05-23T13:32:52;0.80;;;0.43;;
2548;SDS011;1284;53.520;10.248;2023-05-23T13:35:18;1.27;;;0.30;;
2548;SDS011;1284;53.520;10.248;2023-05-23T13:37:44;0.45;;;0.45;;
2548;SDS011;1284;53.520;10.248;2023-05-23T13:40:17;0.70;;;0.52;;
2548;SDS011;1284;53.520;10.248;2023-05-23T13:42:44;1.23;;;0.45;;
2548;SDS011;1284;53.520;10.248;2023-05-23T13:45:11;0.57;;;0.28;;
2548;SDS011;1284;53.520;10.248;2023-05-23T13:47:40;1.63;;;0.50;;
2548;SDS011;1284;53.520;10.248;2023-05-23T13:50:06;0.52;;;0.47;;
2548;SDS011;1284;53.520;10.248;2023-05-23T13:52:32;1.25;;;0.60;;
2548;SDS011;1284;53.520;10.248;2023-05-23T13:54:58;0.93;;;0.35;;
2548;SDS011;1284;53.520;10.248;2023-05-23T13:57:25;0.73;;;0.45;;
2548;SDS011;1284;53.520;10.248;2023-05-23T13:59:51;1.67;;;0.70;;
2548;SDS011;1284;53.520;10.248;2023-05-23T14:02:16;0.75;;;0.75;;
2548;SDS011;1284;53.520;10.248;2023-05-23T14:04:42;0.52;;;0.30;;
2548;SDS011;1284;53.520;10.248;2023-05-23T14:07:07;0.70;;;0.32;;
2548;SDS011;1284;53.520;10.248;2023-05-23T14:09:33;0.93;;;0.43;;
2548;SDS011;1284;53.520;10.248;2023-05-23T14:11:58;2.25;;;0.30;;
2548;SDS011;1284;53.520;10.248;2023-05-23T14:14:24;0.30;;;0.17;;
2548;SDS011;1284;53.520;10.248;2023-05-23T14:16:51;1.17;;;0.47;;
2548;SDS011;1284;53.520;10.248;2023-05-23T14:19:17;0.10;;;0.10;;
2548;SDS011;1284;53.520;10.248;2023-05-23T14:21:43;0.90;;;0.52;;
2548;SDS011;1284;53.520;10.248;2023-05-23T14:24:09;1.60;;;0.30;;
2548;SDS011;1284;53.520;10.248;2023-05-23T14:26:34;0.32;;;0.32;;
2548;SDS011;1284;53.520;10.248;2023-05-23T14:29:00;2.63;;;0.50;;
2548;SDS011;1284;53.520;10.248;2023-05-23T14:31:26;1.50;;;0.57;;
2548;SDS011;1284;53.520;10.248;2023-05-23T14:33:52;1.40;;;0.40;;
2548;SDS011;1284;53.520;10.248;2023-05-23T14:36:17;0.17;;;0.17;;
2548;SDS011;1284;53.520;10.248;2023-05-23T14:38:43;2.63;;;0.40;;
2548;SDS011;1284;53.520;10.248;2023-05-23T14:41:10;2.13;;;0.30;;
2548;SDS011;1284;53.520;10.248;2023-05-23T14:43:37;2.97;;;0.30;;
2548;SDS011;1284;53.520;10.248;2023-05-23T14:46:03;0.25;;;0.25;;
2548;SDS011;1284;53.520;10.248;2023-05-23T14:48:28;0.43;;;0.35;;
2548;SDS011;1284;53.520;10.248;2023-05-23T14:50:54;2.88;;;0.52;;
2548;SDS011;1284;53.520;10.248;2023-05-23T14:53:19;1.20;;;0.52;;
2548;SDS011;1284;53.520;10.248;2023-05-23T14:55:47;0.40;;;0.32;;
2548;SDS011;1284;53.520;10.248;2023-05-23T14:58:16;0.82;;;0.30;;
2548;SDS011;1284;53.520;10.248;2023-05-23T15:00:42;1.20;;;0.25;;
2548;SDS011;1284;53.520;10.248;2023-05-23T15:03:12;0.60;;;0.38;;
2548;SDS011;1284;53.520;10.248;2023-05-23T15:05:38;0.90;;;0.32;;
2548;SDS011;1284;53.520;10.248;2023-05-23T15:08:03;0.88;;;0.50;;
2548;SDS011;1284;53.520;10.248;2023-05-23T15:10:29;5.05;;;0.45;;
2548;SDS011;1284;53.520;10.248;2023-05-23T15:12:55;4.82;;;0.75;;
2548;SDS011;1284;53.520;10.248;2023-05-23T15:15:20;0.30;;;0.30;;
2548;SDS011;1284;53.520;10.248;2023-05-23T15:17:48;1.65;;;0.43;;
2548;SDS011;1284;53.520;10.248;2023-05-23T15:20:14;1.30;;;0.40;;
2548;SDS011;1284;53.520;10.248;2023-05-23T15:22:40;0.38;;;0.30;;
2548;SDS011;1284;53.520;10.248;2023-05-23T15:25:06;2.97;;;0.47;;
2548;SDS011;1284;53.520;10.248;2023-05-23T15:27:32;0.35;;;0.32;;
2548;SDS011;1284;53.520;10.248;2023-05-23T15:29:58;0.73;;;0.20;;
2548;SDS011;1284;53.520;10.248;2023-05-23T15:32:23;0.25;;;0.25;;
2548;SDS011;1284;53.520;10.248;2023-05-23T15:34:49;0.32;;;0.32;;
2548;SDS011;1284;53.520;10.248;2023-05-23T15:37:15;0.43;;;0.17;;
2548;SDS011;1284;53.520;10.248;2023-05-23T15:39:44;0.40;;;0.28;;